sensor_id;sensor_type;location;lat;lon;timestamp;P1;durP1;ratioP1;P2;durP2;ratioP2
30181;SDS011;16990;49.056;9.240;2022-08-07T00:01:34;1.58;;;1.27;;
30181;SDS011;16990;49.056;9.240;2022-08-07T00:04:01;1.48;;;0.88;;
30181;SDS011;16990;49.056;9.240;2022-08-07T00:06:28;5.97;;;1.17;;
30181;SDS011;16990;49.056;9.240;2022-08-07T00:08:54;2.92;;;0.70;;
30181;SDS011;16990;49.056;9.240;2022-08-07T00:11:21;2.38;;;1.05;;
30181;SDS011;16990;49.056;9.240;2022-08-07T00:13:49;1.40;;;0.70;;
30181;SDS011;16990;49.056;9.240;2022-08-07T00:16:16;4.70;;;0.77;;
30181;SDS011;16990;49.056;9.240;2022-08-07T00:18:42;2.25;;;0.60;;
30181;SDS011;16990;49.056;9.240;2022-08-07T00:21:09;0.60;;;0.60;;
30181;SDS011;16990;49.056;9.240;2022-08-07T00:23:38;0.85;;;0.60;;
30181;SDS011;16990;49.056;9.240;2022-08-07T00:26:06;1.02;;;0.57;;
30181;SDS011;16990;49.056;9.240;2022-08-07T00:28:34;2.17;;;0.63;;
30181;SDS011;16990;49.056;9.240;2022-08-07T00:31:03;1.50;;;0.63;;
30181;SDS011;16990;49.056;9.240;2022-08-07T00:33:33;10.85;;;0.75;;
30181;SDS011;16990;49.056;9.240;2022-08-07T00:36:00;5.38;;;0.60;;
30181;SDS011;16990;49.056;9.240;2022-08-07T00:38:27;1.30;;;0.60;;
30181;SDS011;16990;49.056;9.240;2022-08-07T00:40:54;1.73;;;0.55;;
30181;SDS011;16990;49.056;9.240;2022-08-07T00:43:21;5.45;;;0.85;;
30181;SDS011;16990;49.056;9.240;2022-08-07T00:45:47;1.15;;;0.70;;
30181;SDS011;16990;49.056;9.240;2022-08-07T00:48:15;2.00;;;0.85;;
30181;SDS011;16990;49.056;9.240;2022-08-07T00:50:42;7.13;;;0.93;;
30181;SDS011;16990;49.056;9.240;2022-08-07T00:53:09;0.85;;;0.57;;
30181;SDS011;16990;49.056;9.240;2022-08-07T00:55:35;1.63;;;0.63;;
30181;SDS011;16990;49.056;9.240;2022-08-07T00:58:03;2.70;;;0.70;;
30181;SDS011;16990;49.056;9.240;2022-08-07T01:00:29;1.65;;;0.60;;
30181;SDS011;16990;49.056;9.240;2022-08-07T01:02:56;6.13;;;0.85;;
30181;SDS011;16990;49.056;9.240;2022-08-07T01:05:24;10.88;;;0.85;;
30181;SDS011;16990;49.056;9.240;2022-08-07T01:07:52;1.05;;;0.63;;
30181;SDS011;16990;49.056;9.240;2022-08-07T01:10:19;6.70;;;0.60;;
30181;SDS011;16990;49.056;9.240;2022-08-07T01:12:46;2.67;;;0.70;;
30181;SDS011;16990;49.056;9.240;2022-08-07T01:15:14;3.25;;;0.82;;
30181;SDS011;16990;49.056;9.240;2022-08-07T01:17:41;1.13;;;0.73;;
30181;SDS011;16990;49.056;9.240;2022-08-07T01:20:09;4.18;;;1.08;;
30181;SDS011;16990;49.056;9.240;2022-08-07T01:22:40;3.53;;;0.75;;
30181;SDS011;16990;49.056;9.240;2022-08-07T01:25:08;1.67;;;0.63;;
30181;SDS011;16990;49.056;9.240;2022-08-07T01:27:36;2.95;;;0.88;;
30181;SDS011;16990;49.056;9.240;2022-08-07T01:30:03;1.02;;;0.70;;
30181;SDS011;16990;49.056;9.240;2022-08-07T01:32:31;1.67;;;0.90;;
30181;SDS011;16990;49.056;9.240;2022-08-07T01:34:59;1.38;;;0.82;;
30181;SDS011;16990;49.056;9.240;2022-08-07T01:37:27;1.52;;;0.50;;
30181;SDS011;16990;49.056;9.240;2022-08-07T01:39:55;1.50;;;0.80;;
30181;SDS011;16990;49.056;9.240;2022-08-07T01:42:24;1.73;;;0.70;;
30181;SDS011;16990;49.056;9.240;2022-08-07T01:44:50;0.82;;;0.70;;
30181;SDS011;16990;49.056;9.240;2022-08-07T01:47:17;2.25;;;0.77;;
30181;SDS011;16990;49.056;9.240;2022-08-07T01:49:44;3.40;;;1.13;;
30181;SDS011;16990;49.056;9.240;2022-08-07T01:52:11;6.53;;;0.75;;
30181;SDS011;16990;49.056;9.240;2022-08-07T01:54:39;6.03;;;0.80;;
30181;SDS011;16990;49.056;9.240;2022-08-07T01:57:09;0.93;;;0.77;;
30181;SDS011;16990;49.056;9.240;2022-08-07T01:59:41;2.10;;;0.87;;
30181;SDS011;16990;49.056;9.240;2022-08-07T02:02:27;1.27;;;0.70;;
30181;SDS011;16990;49.056;9.240;2022-08-07T02:05:00;1.15;;;0.70;;
30181;SDS011;16990;49.056;9.240;2022-08-07T02:07:32;8.82;;;0.90;;
30181;SDS011;16990;49.056;9.240;2022-08-07T02:10:03;4.50;;;0.77;;
30181;SDS011;16990;49.056;9.240;2022-08-07T02:12:33;0.60;;;0.50;;
30181;SDS011;16990;49.056;9.240;2022-08-07T02:15:03;2.03;;;0.60;;
30181;SDS011;16990;49.056;9.240;2022-08-07T02:17:31;1.15;;;0.75;;
30181;SDS011;16990;49.056;9.240;2022-08-07T02:19:58;1.02;;;0.50;;
30181;SDS011;16990;49.056;9.240;2022-08-07T02:22:27;11.32;;;1.00;;
30181;SDS011;16990;49.056;9.240;2022-08-07T02:24:56;1.48;;;0.80;;
30181;SDS011;16990;49.056;9.240;2022-08-07T02:27:24;1.98;;;0.80;;
30181;SDS011;16990;49.056;9.240;2022-08-07T02:29:54;2.90;;;0.90;;
30181;SDS011;16990;49.056;9.240;2022-08-07T02:32:24;0.73;;;0.60;;
30181;SDS011;16990;49.056;9.240;2022-08-07T02:34:51;3.65;;;0.80;;
30181;SDS011;16990;49.056;9.240;2022-08-07T02:37:21;2.03;;;0.55;;
30181;SDS011;16990;49.056;9.240;2022-08-07T02:39:50;0.50;;;0.50;;
30181;SDS011;16990;49.056;9.240;2022-08-07T02:42:19;2.38;;;0.70;;
30181;SDS011;16990;49.056;9.240;2022-08-07T02:44:47;3.58;;;0.82;;
30181;SDS011;16990;49.056;9.240;2022-08-07T02:47:17;1.73;;;0.75;;
30181;SDS011;16990;49.056;9.240;2022-08-07T02:49:44;2.67;;;0.98;;
30181;SDS011;16990;49.056;9.240;2022-08-07T02:52:14;1.60;;;1.08;;
30181;SDS011;16990;49.056;9.240;2022-08-07T02:54:44;1.08;;;0.70;;
30181;SDS011;16990;49.056;9.240;2022-08-07T02:57:13;5.05;;;0.93;;
30181;SDS011;16990;49.056;9.240;2022-08-07T02:59:43;0.90;;;0.68;;
30181;SDS011;16990;49.056;9.240;2022-08-07T03:02:14;1.85;;;0.85;;
30181;SDS011;16990;49.056;9.240;2022-08-07T03:04:43;2.35;;;0.88;;
30181;SDS011;16990;49.056;9.240;2022-08-07T03:07:11;1.55;;;0.70;;
30181;SDS011;16990;49.056;9.240;2022-08-07T03:09:39;4.47;;;0.68;;
30181;SDS011;16990;49.056;9.240;2022-08-07T03:12:06;3.47;;;1.05;;
30181;SDS011;16990;49.056;9.240;2022-08-07T03:14:35;1.13;;;0.68;;
30181;SDS011;16990;49.056;9.240;2022-08-07T03:17:02;1.58;;;0.88;;
30181;SDS011;16990;49.056;9.240;2022-08-07T03:19:31;0.90;;;0.55;;
30181;SDS011;16990;49.056;9.240;2022-08-07T03:21:59;2.17;;;0.88;;
30181;SDS011;16990;49.056;9.240;2022-08-07T03:24:27;9.25;;;1.08;;
30181;SDS011;16990;49.056;9.240;2022-08-07T03:26:54;1.35;;;0.93;;
30181;SDS011;16990;49.056;9.240;2022-08-07T03:29:24;4.18;;;0.82;;
30181;SDS011;16990;49.056;9.240;2022-08-07T03:31:53;8.48;;;1.27;;
30181;SDS011;16990;49.056;9.240;2022-08-07T03:34:21;4.90;;;0.70;;
30181;SDS011;16990;49.056;9.240;2022-08-07T03:36:50;4.43;;;1.00;;
30181;SDS011;16990;49.056;9.240;2022-08-07T03:39:19;1.48;;;0.90;;
30181;SDS011;16990;49.056;9.240;2022-08-07T03:41:47;3.53;;;0.80;;
30181;SDS011;16990;49.056;9.240;2022-08-07T03:44:14;1.30;;;0.60;;
30181;SDS011;16990;49.056;9.240;2022-08-07T03:46:41;1.60;;;0.82;;
30181;SDS011;16990;49.056;9.240;2022-08-07T03:49:08;2.35;;;1.15;;
30181;SDS011;16990;49.056;9.240;2022-08-07T03:51:35;1.88;;;0.93;;
30181;SDS011;16990;49.056;9.240;2022-08-07T03:54:04;4.28;;;0.95;;
30181;SDS011;16990;49.056;9.240;2022-08-07T03:56:31;2.88;;;0.85;;
30181;SDS011;16990;49.056;9.240;2022-08-07T03:59:01;1.67;;;1.10;;
30181;SDS011;16990;49.056;9.240;2022-08-07T04:01:29;2.35;;;0.98;;
30181;SDS011;16990;49.056;9.240;2022-08-07T04:03:57;2.70;;;0.85;;
30181;SDS011;16990;49.056;9.240;2022-08-07T04:06:25;4.53;;;1.20;;
30181;SDS011;16990;49.056;9.240;2022-08-07T04:08:51;8.30;;;0.90;;
30181;SDS011;16990;49.056;9.240;2022-08-07T04:11:20;1.23;;;0.93;;
30181;SDS011;16990;49.056;9.240;2022-08-07T04:13:48;3.17;;;1.30;;
30181;SDS011;16990;49.056;9.240;2022-08-07T04:16:15;3.45;;;1.27;;
30181;SDS011;16990;49.056;9.240;2022-08-07T04:18:42;2.17;;;1.00;;
30181;SDS011;16990;49.056;9.240;2022-08-07T04:21:09;2.22;;;0.73;;
30181;SDS011;16990;49.056;9.240;2022-08-07T04:23:36;3.33;;;1.17;;
30181;SDS011;16990;49.056;9.240;2022-08-07T04:26:04;2.63;;;1.00;;
30181;SDS011;16990;49.056;9.240;2022-08-07T04:28:32;2.72;;;0.90;;
30181;SDS011;16990;49.056;9.240;2022-08-07T04:30:59;4.05;;;1.27;;
30181;SDS011;16990;49.056;9.240;2022-08-07T04:33:26;2.10;;;1.30;;
30181;SDS011;16990;49.056;9.240;2022-08-07T04:35:53;1.52;;;1.00;;
30181;SDS011;16990;49.056;9.240;2022-08-07T04:38:20;6.68;;;1.10;;
30181;SDS011;16990;49.056;9.240;2022-08-07T04:40:47;5.65;;;1.25;;
30181;SDS011;16990;49.056;9.240;2022-08-07T04:43:14;3.10;;;1.00;;
30181;SDS011;16990;49.056;9.240;2022-08-07T04:45:46;2.05;;;1.10;;
30181;SDS011;16990;49.056;9.240;2022-08-07T04:48:19;7.55;;;1.00;;
30181;SDS011;16990;49.056;9.240;2022-08-07T04:50:55;5.93;;;1.05;;
30181;SDS011;16990;49.056;9.240;2022-08-07T04:56:01;1.58;;;1.08;;
30181;SDS011;16990;49.056;9.240;2022-08-07T04:58:36;2.75;;;1.63;;
30181;SDS011;16990;49.056;9.240;2022-08-07T05:01:13;2.67;;;1.05;;
30181;SDS011;16990;49.056;9.240;2022-08-07T05:03:46;5.93;;;0.90;;
30181;SDS011;16990;49.056;9.240;2022-08-07T05:06:18;5.30;;;2.03;;
30181;SDS011;16990;49.056;9.240;2022-08-07T05:08:49;2.47;;;1.48;;
30181;SDS011;16990;49.056;9.240;2022-08-07T05:11:24;2.25;;;1.13;;
30181;SDS011;16990;49.056;9.240;2022-08-07T05:13:56;3.05;;;1.20;;
30181;SDS011;16990;49.056;9.240;2022-08-07T05:16:28;7.07;;;1.00;;
30181;SDS011;16990;49.056;9.240;2022-08-07T05:18:58;3.53;;;1.13;;
30181;SDS011;16990;49.056;9.240;2022-08-07T05:21:28;6.38;;;1.30;;
30181;SDS011;16990;49.056;9.240;2022-08-07T05:23:57;3.38;;;1.13;;
30181;SDS011;16990;49.056;9.240;2022-08-07T05:26:28;1.40;;;1.17;;
30181;SDS011;16990;49.056;9.240;2022-08-07T05:28:58;5.35;;;1.20;;
30181;SDS011;16990;49.056;9.240;2022-08-07T05:31:30;6.20;;;1.65;;
30181;SDS011;16990;49.056;9.240;2022-08-07T05:33:58;4.68;;;1.02;;
30181;SDS011;16990;49.056;9.240;2022-08-07T05:36:27;4.60;;;1.50;;
30181;SDS011;16990;49.056;9.240;2022-08-07T05:38:55;5.22;;;1.50;;
30181;SDS011;16990;49.056;9.240;2022-08-07T05:41:23;2.50;;;1.40;;
30181;SDS011;16990;49.056;9.240;2022-08-07T05:43:51;6.70;;;1.40;;
30181;SDS011;16990;49.056;9.240;2022-08-07T05:46:21;3.42;;;1.60;;
30181;SDS011;16990;49.056;9.240;2022-08-07T05:48:50;3.53;;;1.55;;
30181;SDS011;16990;49.056;9.240;2022-08-07T05:51:18;4.53;;;1.40;;
30181;SDS011;16990;49.056;9.240;2022-08-07T05:53:46;3.95;;;1.25;;
30181;SDS011;16990;49.056;9.240;2022-08-07T05:56:14;1.65;;;1.17;;
30181;SDS011;16990;49.056;9.240;2022-08-07T05:58:43;2.00;;;1.15;;
30181;SDS011;16990;49.056;9.240;2022-08-07T06:04:56;2.70;;;1.48;;
30181;SDS011;16990;49.056;9.240;2022-08-07T06:07:27;2.37;;;1.50;;
30181;SDS011;16990;49.056;9.240;2022-08-07T06:09:54;3.80;;;1.50;;
30181;SDS011;16990;49.056;9.240;2022-08-07T06:12:21;5.63;;;1.67;;
30181;SDS011;16990;49.056;9.240;2022-08-07T06:14:48;4.82;;;1.40;;
30181;SDS011;16990;49.056;9.240;2022-08-07T06:17:15;2.65;;;1.70;;
30181;SDS011;16990;49.056;9.240;2022-08-07T06:19:43;12.52;;;2.22;;
30181;SDS011;16990;49.056;9.240;2022-08-07T06:22:11;3.25;;;2.05;;
30181;SDS011;16990;49.056;9.240;2022-08-07T06:24:39;6.85;;;2.42;;
30181;SDS011;16990;49.056;9.240;2022-08-07T06:27:06;4.38;;;2.53;;
30181;SDS011;16990;49.056;9.240;2022-08-07T06:29:33;3.50;;;2.40;;
30181;SDS011;16990;49.056;9.240;2022-08-07T06:32:00;5.95;;;2.20;;
30181;SDS011;16990;49.056;9.240;2022-08-07T06:34:26;5.70;;;2.38;;
30181;SDS011;16990;49.056;9.240;2022-08-07T06:36:53;6.18;;;2.50;;
30181;SDS011;16990;49.056;9.240;2022-08-07T06:39:21;4.20;;;2.92;;
30181;SDS011;16990;49.056;9.240;2022-08-07T06:41:52;2.95;;;2.35;;
30181;SDS011;16990;49.056;9.240;2022-08-07T06:44:23;5.22;;;2.40;;
30181;SDS011;16990;49.056;9.240;2022-08-07T06:46:51;5.93;;;2.63;;
30181;SDS011;16990;49.056;9.240;2022-08-07T06:49:18;4.40;;;2.75;;
30181;SDS011;16990;49.056;9.240;2022-08-07T06:51:44;4.00;;;2.38;;
30181;SDS011;16990;49.056;9.240;2022-08-07T06:54:12;7.25;;;2.05;;
30181;SDS011;16990;49.056;9.240;2022-08-07T06:56:42;7.18;;;2.13;;
30181;SDS011;16990;49.056;9.240;2022-08-07T06:59:12;2.63;;;2.13;;
30181;SDS011;16990;49.056;9.240;2022-08-07T07:01:41;2.88;;;2.00;;
30181;SDS011;16990;49.056;9.240;2022-08-07T07:04:08;2.45;;;2.08;;
30181;SDS011;16990;49.056;9.240;2022-08-07T07:06:35;4.32;;;1.92;;
30181;SDS011;16990;49.056;9.240;2022-08-07T07:09:19;4.20;;;2.42;;
30181;SDS011;16990;49.056;9.240;2022-08-07T07:12:01;3.33;;;2.05;;
30181;SDS011;16990;49.056;9.240;2022-08-07T07:14:46;3.85;;;1.98;;
30181;SDS011;16990;49.056;9.240;2022-08-07T07:17:27;4.72;;;2.30;;
30181;SDS011;16990;49.056;9.240;2022-08-07T07:20:01;3.83;;;2.28;;
30181;SDS011;16990;49.056;9.240;2022-08-07T07:22:31;3.78;;;2.13;;
30181;SDS011;16990;49.056;9.240;2022-08-07T07:24:59;3.50;;;1.92;;
30181;SDS011;16990;49.056;9.240;2022-08-07T07:27:31;2.97;;;2.00;;
30181;SDS011;16990;49.056;9.240;2022-08-07T07:30:03;5.82;;;2.15;;
30181;SDS011;16990;49.056;9.240;2022-08-07T07:32:32;6.07;;;2.03;;
30181;SDS011;16990;49.056;9.240;2022-08-07T07:35:03;4.97;;;2.00;;
30181;SDS011;16990;49.056;9.240;2022-08-07T07:37:30;5.03;;;1.90;;
30181;SDS011;16990;49.056;9.240;2022-08-07T07:40:00;4.25;;;1.88;;
30181;SDS011;16990;49.056;9.240;2022-08-07T07:42:32;4.80;;;1.63;;
30181;SDS011;16990;49.056;9.240;2022-08-07T07:45:00;5.03;;;1.50;;
30181;SDS011;16990;49.056;9.240;2022-08-07T07:47:28;4.57;;;1.77;;
30181;SDS011;16990;49.056;9.240;2022-08-07T07:49:56;2.83;;;1.50;;
30181;SDS011;16990;49.056;9.240;2022-08-07T07:52:26;4.35;;;1.70;;
30181;SDS011;16990;49.056;9.240;2022-08-07T07:54:54;2.33;;;1.27;;
30181;SDS011;16990;49.056;9.240;2022-08-07T07:57:22;2.03;;;1.33;;
30181;SDS011;16990;49.056;9.240;2022-08-07T07:59:52;4.15;;;1.33;;
30181;SDS011;16990;49.056;9.240;2022-08-07T08:02:20;1.85;;;1.15;;
30181;SDS011;16990;49.056;9.240;2022-08-07T08:04:50;2.25;;;1.05;;
30181;SDS011;16990;49.056;9.240;2022-08-07T08:07:18;2.45;;;1.08;;
30181;SDS011;16990;49.056;9.240;2022-08-07T08:09:45;3.22;;;1.25;;
30181;SDS011;16990;49.056;9.240;2022-08-07T08:12:14;1.10;;;1.02;;
30181;SDS011;16990;49.056;9.240;2022-08-07T08:14:41;2.08;;;1.15;;
30181;SDS011;16990;49.056;9.240;2022-08-07T08:17:11;3.55;;;1.00;;
30181;SDS011;16990;49.056;9.240;2022-08-07T08:19:40;0.73;;;0.73;;
30181;SDS011;16990;49.056;9.240;2022-08-07T08:22:08;3.15;;;0.80;;
30181;SDS011;16990;49.056;9.240;2022-08-07T08:24:53;1.40;;;0.93;;
30181;SDS011;16990;49.056;9.240;2022-08-07T08:27:39;5.95;;;1.17;;
30181;SDS011;16990;49.056;9.240;2022-08-07T08:30:08;2.33;;;0.93;;
30181;SDS011;16990;49.056;9.240;2022-08-07T08:32:39;2.97;;;0.95;;
30181;SDS011;16990;49.056;9.240;2022-08-07T08:35:08;1.83;;;0.75;;
30181;SDS011;16990;49.056;9.240;2022-08-07T08:37:37;3.33;;;0.73;;
30181;SDS011;16990;49.056;9.240;2022-08-07T08:40:08;1.33;;;0.80;;
30181;SDS011;16990;49.056;9.240;2022-08-07T08:42:44;1.40;;;0.55;;
30181;SDS011;16990;49.056;9.240;2022-08-07T08:45:17;5.90;;;0.88;;
30181;SDS011;16990;49.056;9.240;2022-08-07T08:47:51;2.72;;;0.50;;
30181;SDS011;16990;49.056;9.240;2022-08-07T08:50:26;2.63;;;0.93;;
30181;SDS011;16990;49.056;9.240;2022-08-07T08:53:01;3.38;;;0.80;;
30181;SDS011;16990;49.056;9.240;2022-08-07T08:55:33;0.75;;;0.60;;
30181;SDS011;16990;49.056;9.240;2022-08-07T08:58:05;2.88;;;0.50;;
30181;SDS011;16990;49.056;9.240;2022-08-07T09:00:39;3.03;;;0.40;;
30181;SDS011;16990;49.056;9.240;2022-08-07T09:03:14;5.07;;;0.80;;
30181;SDS011;16990;49.056;9.240;2022-08-07T09:05:52;7.25;;;1.10;;
30181;SDS011;16990;49.056;9.240;2022-08-07T09:08:23;0.75;;;0.75;;
30181;SDS011;16990;49.056;9.240;2022-08-07T09:13:45;7.18;;;0.80;;
30181;SDS011;16990;49.056;9.240;2022-08-07T09:16:25;1.65;;;0.60;;
30181;SDS011;16990;49.056;9.240;2022-08-07T09:19:09;4.00;;;0.90;;
30181;SDS011;16990;49.056;9.240;2022-08-07T09:21:49;1.75;;;0.70;;
30181;SDS011;16990;49.056;9.240;2022-08-07T09:24:25;2.22;;;0.70;;
30181;SDS011;16990;49.056;9.240;2022-08-07T09:27:02;5.28;;;0.68;;
30181;SDS011;16990;49.056;9.240;2022-08-07T09:29:52;3.53;;;0.73;;
30181;SDS011;16990;49.056;9.240;2022-08-07T09:32:24;1.38;;;0.50;;
30181;SDS011;16990;49.056;9.240;2022-08-07T09:34:59;4.03;;;0.70;;
30181;SDS011;16990;49.056;9.240;2022-08-07T09:37:35;1.33;;;0.60;;
30181;SDS011;16990;49.056;9.240;2022-08-07T09:40:08;1.08;;;0.50;;
30181;SDS011;16990;49.056;9.240;2022-08-07T09:42:47;1.17;;;0.52;;
30181;SDS011;16990;49.056;9.240;2022-08-07T09:45:22;2.10;;;0.55;;
30181;SDS011;16990;49.056;9.240;2022-08-07T09:48:10;1.13;;;0.63;;
30181;SDS011;16990;49.056;9.240;2022-08-07T09:50:55;1.67;;;0.82;;
30181;SDS011;16990;49.056;9.240;2022-08-07T09:53:31;1.73;;;0.93;;
30181;SDS011;16990;49.056;9.240;2022-08-07T09:59:17;2.72;;;0.55;;
30181;SDS011;16990;49.056;9.240;2022-08-07T10:02:02;2.38;;;0.43;;
30181;SDS011;16990;49.056;9.240;2022-08-07T10:04:48;0.50;;;0.50;;
30181;SDS011;16990;49.056;9.240;2022-08-07T10:07:33;4.70;;;0.60;;
30181;SDS011;16990;49.056;9.240;2022-08-07T10:10:13;0.70;;;0.50;;
30181;SDS011;16990;49.056;9.240;2022-08-07T10:12:58;0.82;;;0.50;;
30181;SDS011;16990;49.056;9.240;2022-08-07T10:15:45;1.50;;;0.60;;
30181;SDS011;16990;49.056;9.240;2022-08-07T10:18:23;3.53;;;0.70;;
30181;SDS011;16990;49.056;9.240;2022-08-07T10:21:06;2.30;;;0.57;;
30181;SDS011;16990;49.056;9.240;2022-08-07T10:23:48;0.40;;;0.40;;
30181;SDS011;16990;49.056;9.240;2022-08-07T10:26:29;1.55;;;0.60;;
30181;SDS011;16990;49.056;9.240;2022-08-07T10:29:06;1.15;;;0.60;;
30181;SDS011;16990;49.056;9.240;2022-08-07T10:31:52;4.43;;;0.57;;
30181;SDS011;16990;49.056;9.240;2022-08-07T10:34:38;1.90;;;0.55;;
30181;SDS011;16990;49.056;9.240;2022-08-07T10:37:12;6.22;;;0.63;;
30181;SDS011;16990;49.056;9.240;2022-08-07T10:39:57;0.95;;;0.57;;
30181;SDS011;16990;49.056;9.240;2022-08-07T10:42:34;3.60;;;0.57;;
30181;SDS011;16990;49.056;9.240;2022-08-07T10:45:08;1.42;;;0.57;;
30181;SDS011;16990;49.056;9.240;2022-08-07T10:47:44;1.38;;;0.60;;
30181;SDS011;16990;49.056;9.240;2022-08-07T10:50:18;2.33;;;0.70;;
30181;SDS011;16990;49.056;9.240;2022-08-07T10:52:51;4.60;;;0.77;;
30181;SDS011;16990;49.056;9.240;2022-08-07T10:55:27;0.60;;;0.50;;
30181;SDS011;16990;49.056;9.240;2022-08-07T10:58:08;3.45;;;0.55;;
30181;SDS011;16990;49.056;9.240;2022-08-07T11:00:45;2.42;;;0.70;;
30181;SDS011;16990;49.056;9.240;2022-08-07T11:03:22;6.90;;;0.60;;
30181;SDS011;16990;49.056;9.240;2022-08-07T11:06:02;2.28;;;0.60;;
30181;SDS011;16990;49.056;9.240;2022-08-07T11:08:35;5.57;;;0.85;;
30181;SDS011;16990;49.056;9.240;2022-08-07T11:11:11;1.13;;;0.45;;
30181;SDS011;16990;49.056;9.240;2022-08-07T11:13:41;0.68;;;0.68;;
30181;SDS011;16990;49.056;9.240;2022-08-07T11:16:16;2.05;;;0.70;;
30181;SDS011;16990;49.056;9.240;2022-08-07T11:18:49;0.82;;;0.50;;
30181;SDS011;16990;49.056;9.240;2022-08-07T11:21:23;3.53;;;0.70;;
30181;SDS011;16990;49.056;9.240;2022-08-07T11:23:56;1.02;;;0.60;;
30181;SDS011;16990;49.056;9.240;2022-08-07T11:26:38;1.40;;;0.88;;
30181;SDS011;16990;49.056;9.240;2022-08-07T11:29:12;1.23;;;0.80;;
30181;SDS011;16990;49.056;9.240;2022-08-07T11:31:46;1.10;;;0.60;;
30181;SDS011;16990;49.056;9.240;2022-08-07T11:34:18;2.25;;;0.95;;
30181;SDS011;16990;49.056;9.240;2022-08-07T11:36:54;1.20;;;0.88;;
30181;SDS011;16990;49.056;9.240;2022-08-07T11:39:29;1.77;;;1.00;;
30181;SDS011;16990;49.056;9.240;2022-08-07T11:42:12;2.00;;;0.50;;
30181;SDS011;16990;49.056;9.240;2022-08-07T11:44:46;0.73;;;0.40;;
30181;SDS011;16990;49.056;9.240;2022-08-07T11:47:27;1.27;;;0.63;;
30181;SDS011;16990;49.056;9.240;2022-08-07T11:52:44;0.82;;;0.57;;
30181;SDS011;16990;49.056;9.240;2022-08-07T11:55:25;0.60;;;0.40;;
30181;SDS011;16990;49.056;9.240;2022-08-07T11:58:04;1.30;;;0.60;;
30181;SDS011;16990;49.056;9.240;2022-08-07T12:00:44;1.45;;;0.70;;
30181;SDS011;16990;49.056;9.240;2022-08-07T12:03:29;1.33;;;0.55;;
30181;SDS011;16990;49.056;9.240;2022-08-07T12:06:11;1.55;;;0.52;;
30181;SDS011;16990;49.056;9.240;2022-08-07T12:08:51;2.35;;;0.70;;
30181;SDS011;16990;49.056;9.240;2022-08-07T12:11:25;0.98;;;0.43;;
30181;SDS011;16990;49.056;9.240;2022-08-07T12:14:00;3.72;;;0.65;;
30181;SDS011;16990;49.056;9.240;2022-08-07T12:16:33;1.00;;;0.50;;
30181;SDS011;16990;49.056;9.240;2022-08-07T12:19:04;3.53;;;0.75;;
30181;SDS011;16990;49.056;9.240;2022-08-07T12:21:40;1.45;;;0.60;;
30181;SDS011;16990;49.056;9.240;2022-08-07T12:24:15;0.90;;;0.50;;
30181;SDS011;16990;49.056;9.240;2022-08-07T12:26:47;1.58;;;0.50;;
30181;SDS011;16990;49.056;9.240;2022-08-07T12:29:22;1.27;;;0.65;;
30181;SDS011;16990;49.056;9.240;2022-08-07T12:31:56;2.80;;;0.47;;
30181;SDS011;16990;49.056;9.240;2022-08-07T12:36:56;4.28;;;0.50;;
30181;SDS011;16990;49.056;9.240;2022-08-07T12:39:25;1.67;;;0.60;;
30181;SDS011;16990;49.056;9.240;2022-08-07T12:41:55;4.32;;;0.68;;
30181;SDS011;16990;49.056;9.240;2022-08-07T12:44:25;2.58;;;0.60;;
30181;SDS011;16990;49.056;9.240;2022-08-07T12:46:56;1.02;;;0.60;;
30181;SDS011;16990;49.056;9.240;2022-08-07T12:49:39;1.45;;;0.80;;
30181;SDS011;16990;49.056;9.240;2022-08-07T12:52:15;3.42;;;0.50;;
30181;SDS011;16990;49.056;9.240;2022-08-07T12:54:51;2.22;;;0.65;;
30181;SDS011;16990;49.056;9.240;2022-08-07T12:57:26;0.60;;;0.40;;
30181;SDS011;16990;49.056;9.240;2022-08-07T12:59:57;3.08;;;0.40;;
30181;SDS011;16990;49.056;9.240;2022-08-07T13:02:28;3.40;;;0.50;;
30181;SDS011;16990;49.056;9.240;2022-08-07T13:05:08;1.30;;;0.52;;
30181;SDS011;16990;49.056;9.240;2022-08-07T13:08:11;0.77;;;0.50;;
30181;SDS011;16990;49.056;9.240;2022-08-07T13:10:50;0.68;;;0.45;;
30181;SDS011;16990;49.056;9.240;2022-08-07T13:13:33;1.17;;;0.68;;
30181;SDS011;16990;49.056;9.240;2022-08-07T13:16:10;0.95;;;0.60;;
30181;SDS011;16990;49.056;9.240;2022-08-07T13:18:45;3.03;;;0.63;;
30181;SDS011;16990;49.056;9.240;2022-08-07T13:21:19;1.00;;;0.65;;
30181;SDS011;16990;49.056;9.240;2022-08-07T13:23:51;5.63;;;0.60;;
30181;SDS011;16990;49.056;9.240;2022-08-07T13:26:30;3.47;;;0.50;;
30181;SDS011;16990;49.056;9.240;2022-08-07T13:29:03;1.92;;;0.50;;
30181;SDS011;16990;49.056;9.240;2022-08-07T13:31:39;0.73;;;0.40;;
30181;SDS011;16990;49.056;9.240;2022-08-07T13:34:12;2.13;;;0.63;;
30181;SDS011;16990;49.056;9.240;2022-08-07T13:37:00;1.40;;;0.52;;
30181;SDS011;16990;49.056;9.240;2022-08-07T13:39:32;1.23;;;0.50;;
30181;SDS011;16990;49.056;9.240;2022-08-07T13:42:04;5.97;;;0.65;;
30181;SDS011;16990;49.056;9.240;2022-08-07T13:44:35;0.88;;;0.70;;
30181;SDS011;16990;49.056;9.240;2022-08-07T13:47:06;0.75;;;0.63;;
30181;SDS011;16990;49.056;9.240;2022-08-07T13:49:36;3.45;;;0.93;;
30181;SDS011;16990;49.056;9.240;2022-08-07T13:52:07;1.77;;;0.57;;
30181;SDS011;16990;49.056;9.240;2022-08-07T13:54:35;1.10;;;0.60;;
30181;SDS011;16990;49.056;9.240;2022-08-07T13:57:06;1.40;;;0.50;;
30181;SDS011;16990;49.056;9.240;2022-08-07T13:59:38;2.00;;;0.70;;
30181;SDS011;16990;49.056;9.240;2022-08-07T14:02:10;1.27;;;0.63;;
30181;SDS011;16990;49.056;9.240;2022-08-07T14:04:46;3.72;;;0.60;;
30181;SDS011;16990;49.056;9.240;2022-08-07T14:07:16;0.82;;;0.45;;
30181;SDS011;16990;49.056;9.240;2022-08-07T14:09:46;0.85;;;0.73;;
30181;SDS011;16990;49.056;9.240;2022-08-07T14:12:18;0.80;;;0.50;;
30181;SDS011;16990;49.056;9.240;2022-08-07T14:14:50;1.02;;;0.70;;
30181;SDS011;16990;49.056;9.240;2022-08-07T14:17:22;0.60;;;0.55;;
30181;SDS011;16990;49.056;9.240;2022-08-07T14:19:51;0.75;;;0.50;;
30181;SDS011;16990;49.056;9.240;2022-08-07T14:22:22;1.92;;;0.52;;
30181;SDS011;16990;49.056;9.240;2022-08-07T14:24:53;2.25;;;0.60;;
30181;SDS011;16990;49.056;9.240;2022-08-07T14:27:26;1.20;;;0.45;;
30181;SDS011;16990;49.056;9.240;2022-08-07T14:30:00;0.50;;;0.50;;
30181;SDS011;16990;49.056;9.240;2022-08-07T14:32:30;2.60;;;0.57;;
30181;SDS011;16990;49.056;9.240;2022-08-07T14:35:03;0.50;;;0.50;;
30181;SDS011;16990;49.056;9.240;2022-08-07T14:37:31;0.45;;;0.40;;
30181;SDS011;16990;49.056;9.240;2022-08-07T14:40:00;1.27;;;0.50;;
30181;SDS011;16990;49.056;9.240;2022-08-07T14:42:28;2.00;;;0.52;;
30181;SDS011;16990;49.056;9.240;2022-08-07T14:45:00;1.67;;;0.50;;
30181;SDS011;16990;49.056;9.240;2022-08-07T14:47:31;1.67;;;0.50;;
30181;SDS011;16990;49.056;9.240;2022-08-07T14:49:59;2.30;;;0.63;;
30181;SDS011;16990;49.056;9.240;2022-08-07T14:52:31;4.63;;;1.10;;
30181;SDS011;16990;49.056;9.240;2022-08-07T14:55:01;1.05;;;0.73;;
30181;SDS011;16990;49.056;9.240;2022-08-07T14:57:29;2.25;;;0.63;;
30181;SDS011;16990;49.056;9.240;2022-08-07T14:59:58;1.77;;;0.93;;
30181;SDS011;16990;49.056;9.240;2022-08-07T15:02:27;1.65;;;0.60;;
30181;SDS011;16990;49.056;9.240;2022-08-07T15:04:57;0.60;;;0.40;;
30181;SDS011;16990;49.056;9.240;2022-08-07T15:07:25;0.80;;;0.50;;
30181;SDS011;16990;49.056;9.240;2022-08-07T15:09:54;4.85;;;0.50;;
30181;SDS011;16990;49.056;9.240;2022-08-07T15:12:23;1.42;;;0.68;;
30181;SDS011;16990;49.056;9.240;2022-08-07T15:14:54;1.65;;;0.50;;
30181;SDS011;16990;49.056;9.240;2022-08-07T15:19:58;3.53;;;0.77;;
30181;SDS011;16990;49.056;9.240;2022-08-07T15:22:28;1.48;;;0.50;;
30181;SDS011;16990;49.056;9.240;2022-08-07T15:24:57;0.63;;;0.47;;
30181;SDS011;16990;49.056;9.240;2022-08-07T15:27:28;1.52;;;0.65;;
30181;SDS011;16990;49.056;9.240;2022-08-07T15:29:58;4.88;;;2.25;;
30181;SDS011;16990;49.056;9.240;2022-08-07T15:32:32;3.58;;;0.90;;
30181;SDS011;16990;49.056;9.240;2022-08-07T15:35:07;2.50;;;0.90;;